sensor_id;sensor_type;location;lat;lon;timestamp;temperature;humidity
71297;SHT31;59082;50.658;4.608;2023-02-08T06:04:39;-2.48;92.30
71297;SHT31;59082;50.658;4.608;2023-02-08T06:07:05;-2.54;92.51
71297;SHT31;59082;50.658;4.608;2023-02-08T06:09:30;-2.49;92.38
71297;SHT31;59082;50.658;4.608;2023-02-08T06:11:56;-2.55;92.44
71297;SHT31;59082;50.658;4.608;2023-02-08T06:14:21;-2.58;92.85
71297;SHT31;59082;50.658;4.608;2023-02-08T06:16:50;-2.58;92.36
71297;SHT31;59082;50.658;4.608;2023-02-08T06:19:15;-2.52;92.07
71297;SHT31;59082;50.658;4.608;2023-02-08T06:21:43;-2.47;92.34
71297;SHT31;59082;50.658;4.608;2023-02-08T06:24:09;-2.45;92.29
71297;SHT31;59082;50.658;4.608;2023-02-08T06:26:35;-2.38;91.97
71297;SHT31;59082;50.658;4.608;2023-02-08T06:29:01;-2.37;92.16
71297;SHT31;59082;50.658;4.608;2023-02-08T06:31:29;-2.41;92.67
71297;SHT31;59082;50.658;4.608;2023-02-08T06:33:55;-2.45;93.47
71297;SHT31;59082;50.658;4.608;2023-02-08T06:36:20;-2.42;93.63
71297;SHT31;59082;50.658;4.608;2023-02-08T06:38:47;-2.37;92.15
71297;SHT31;59082;50.658;4.608;2023-02-08T06:41:13;-2.33;92.16
71297;SHT31;59082;50.658;4.608;2023-02-08T06:43:38;-2.26;91.63
71297;SHT31;59082;50.658;4.608;2023-02-08T06:46:06;-2.27;91.52
71297;SHT31;59082;50.658;4.608;2023-02-08T06:48:34;-2.27;91.51
71297;SHT31;59082;50.658;4.608;2023-02-08T06:50:59;-2.21;91.94
71297;SHT31;59082;50.658;4.608;2023-02-08T06:53:25;-2.11;91.58
71297;SHT31;59082;50.658;4.608;2023-02-08T06:55:51;-2.14;91.50
71297;SHT31;59082;50.658;4.608;2023-02-08T06:58:17;-2.00;91.30
71297;SHT31;59082;50.658;4.608;2023-02-08T07:00:43;-1.92;90.88
71297;SHT31;59082;50.658;4.608;2023-02-08T07:03:14;-1.89;90.42
71297;SHT31;59082;50.658;4.608;2023-02-08T07:05:46;-1.94;90.95
71297;SHT31;59082;50.658;4.608;2023-02-08T07:08:12;-1.93;91.51
71297;SHT31;59082;50.658;4.608;2023-02-08T07:10:38;-1.96;91.64
71297;SHT31;59082;50.658;4.608;2023-02-08T07:13:05;-1.96;92.01
71297;SHT31;59082;50.658;4.608;2023-02-08T07:15:31;-2.01;92.17
71297;SHT31;59082;50.658;4.608;2023-02-08T07:17:57;-1.99;91.83
71297;SHT31;59082;50.658;4.608;2023-02-08T07:23:44;-2.06;92.32
71297;SHT31;59082;50.658;4.608;2023-02-08T07:26:12;-1.94;91.39
71297;SHT31;59082;50.658;4.608;2023-02-08T07:28:40;-1.87;90.85
71297;SHT31;59082;50.658;4.608;2023-02-08T07:31:11;-1.89;91.15
71297;SHT31;59082;50.658;4.608;2023-02-08T07:33:40;-1.79;91.36
71297;SHT31;59082;50.658;4.608;2023-02-08T07:36:06;-1.76;91.56
71297;SHT31;59082;50.658;4.608;2023-02-08T07:38:33;-1.72;91.47
71297;SHT31;59082;50.658;4.608;2023-02-08T07:41:10;-1.73;91.40
71297;SHT31;59082;50.658;4.608;2023-02-08T07:43:38;-1.75;91.80
71297;SHT31;59082;50.658;4.608;2023-02-08T07:46:07;-1.78;92.01
71297;SHT31;59082;50.658;4.608;2023-02-08T07:48:34;-1.78;91.74
71297;SHT31;59082;50.658;4.608;2023-02-08T07:51:00;-1.79;93.61
71297;SHT31;59082;50.658;4.608;2023-02-08T07:53:27;-1.80;93.98
71297;SHT31;59082;50.658;4.608;2023-02-08T07:55:52;-1.83;93.56
71297;SHT31;59082;50.658;4.608;2023-02-08T07:58:17;-1.87;94.30
71297;SHT31;59082;50.658;4.608;2023-02-08T08:00:43;-1.89;94.92
71297;SHT31;59082;50.658;4.608;2023-02-08T08:03:09;-1.93;95.16
71297;SHT31;59082;50.658;4.608;2023-02-08T08:05:34;-1.90;94.86
71297;SHT31;59082;50.658;4.608;2023-02-08T08:08:00;-1.78;93.39
71297;SHT31;59082;50.658;4.608;2023-02-08T08:10:25;-1.80;94.66
71297;SHT31;59082;50.658;4.608;2023-02-08T08:12:51;-1.86;95.33
71297;SHT31;59082;50.658;4.608;2023-02-08T08:15:16;-1.83;95.53
71297;SHT31;59082;50.658;4.608;2023-02-08T08:17:42;-1.82;95.71
71297;SHT31;59082;50.658;4.608;2023-02-08T08:20:09;-1.79;95.76
71297;SHT31;59082;50.658;4.608;2023-02-08T08:22:37;-1.73;95.41
71297;SHT31;59082;50.658;4.608;2023-02-08T08:25:05;-1.51;95.31
71297;SHT31;59082;50.658;4.608;2023-02-08T08:27:31;-1.07;92.96
71297;SHT31;59082;50.658;4.608;2023-02-08T08:30:00;-0.70;90.32
71297;SHT31;59082;50.658;4.608;2023-02-08T08:32:26;-0.39;90.01
71297;SHT31;59082;50.658;4.608;2023-02-08T08:34:52;-0.19;89.47
71297;SHT31;59082;50.658;4.608;2023-02-08T08:37:17;0.06;88.78
71297;SHT31;59082;50.658;4.608;2023-02-08T08:39:43;0.27;87.98
71297;SHT31;59082;50.658;4.608;2023-02-08T08:42:11;0.58;86.50
71297;SHT31;59082;50.658;4.608;2023-02-08T08:44:44;0.83;84.75
71297;SHT31;59082;50.658;4.608;2023-02-08T08:47:10;0.75;87.83
71297;SHT31;59082;50.658;4.608;2023-02-08T08:49:38;0.66;88.66
71297;SHT31;59082;50.658;4.608;2023-02-08T08:52:05;0.96;88.91
71297;SHT31;59082;50.658;4.608;2023-02-08T08:54:33;1.14;87.15
71297;SHT31;59082;50.658;4.608;2023-02-08T08:56:58;1.54;85.60
71297;SHT31;59082;50.658;4.608;2023-02-08T08:59:24;1.83;83.91
71297;SHT31;59082;50.658;4.608;2023-02-08T09:01:50;1.92;85.09
71297;SHT31;59082;50.658;4.608;2023-02-08T09:04:15;2.12;84.52
71297;SHT31;59082;50.658;4.608;2023-02-08T09:06:41;2.31;84.86
71297;SHT31;59082;50.658;4.608;2023-02-08T09:09:07;2.58;84.93
71297;SHT31;59082;50.658;4.608;2023-02-08T09:11:33;2.89;82.13
71297;SHT31;59082;50.658;4.608;2023-02-08T09:14:03;3.27;79.50
71297;SHT31;59082;50.658;4.608;2023-02-08T09:16:30;4.09;77.70
71297;SHT31;59082;50.658;4.608;2023-02-08T09:19:05;4.64;76.43
71297;SHT31;59082;50.658;4.608;2023-02-08T09:21:32;4.84;74.98
71297;SHT31;59082;50.658;4.608;2023-02-08T09:24:00;4.81;71.84
71297;SHT31;59082;50.658;4.608;2023-02-08T09:26:26;5.19;72.04
71297;SHT31;59082;50.658;4.608;2023-02-08T09:28:52;5.27;72.30
71297;SHT31;59082;50.658;4.608;2023-02-08T09:31:22;5.40;68.49
71297;SHT31;59082;50.658;4.608;2023-02-08T09:33:57;5.85;68.87
71297;SHT31;59082;50.658;4.608;2023-02-08T09:36:25;6.19;67.91
71297;SHT31;59082;50.658;4.608;2023-02-08T09:38:55;6.63;68.07
71297;SHT31;59082;50.658;4.608;2023-02-08T09:47:36;6.39;66.03
71297;SHT31;59082;50.658;4.608;2023-02-08T09:55:43;6.87;66.28
71297;SHT31;59082;50.658;4.608;2023-02-08T09:58:36;8.02;64.11
71297;SHT31;59082;50.658;4.608;2023-02-08T10:01:21;8.74;63.01
71297;SHT31;59082;50.658;4.608;2023-02-08T10:03:51;9.67;60.87
71297;SHT31;59082;50.658;4.608;2023-02-08T10:06:18;10.24;60.05
71297;SHT31;59082;50.658;4.608;2023-02-08T10:08:48;11.03;54.31
71297;SHT31;59082;50.658;4.608;2023-02-08T10:19:03;12.09;51.86
71297;SHT31;59082;50.658;4.608;2023-02-08T10:24:51;13.07;48.92
71297;SHT31;59082;50.658;4.608;2023-02-08T10:33:01;13.67;47.94
71297;SHT31;59082;50.658;4.608;2023-02-08T10:40:48;13.53;49.95
71297;SHT31;59082;50.658;4.608;2023-02-08T10:46:15;13.74;49.69
71297;SHT31;59082;50.658;4.608;2023-02-08T10:49:09;12.77;51.68
71297;SHT31;59082;50.658;4.608;2023-02-08T10:51:36;12.12;52.38
71297;SHT31;59082;50.658;4.608;2023-02-08T10:54:02;12.51;52.49
71297;SHT31;59082;50.658;4.608;2023-02-08T10:59:17;12.77;51.15
71297;SHT31;59082;50.658;4.608;2023-02-08T11:01:46;12.45;52.60
71297;SHT31;59082;50.658;4.608;2023-02-08T11:04:13;11.96;54.10
71297;SHT31;59082;50.658;4.608;2023-02-08T11:06:40;10.89;55.60
71297;SHT31;59082;50.658;4.608;2023-02-08T11:09:28;10.53;56.50
71297;SHT31;59082;50.658;4.608;2023-02-08T11:11:56;10.07;56.39
71297;SHT31;59082;50.658;4.608;2023-02-08T11:14:37;9.56;56.09
71297;SHT31;59082;50.658;4.608;2023-02-08T11:17:25;8.70;55.69
71297;SHT31;59082;50.658;4.608;2023-02-08T11:19:51;8.96;57.39
71297;SHT31;59082;50.658;4.608;2023-02-08T11:22:19;8.57;58.33
71297;SHT31;59082;50.658;4.608;2023-02-08T11:24:55;8.41;60.12
71297;SHT31;59082;50.658;4.608;2023-02-08T11:32:33;9.63;59.72
71297;SHT31;59082;50.658;4.608;2023-02-08T11:35:19;10.51;56.93
71297;SHT31;59082;50.658;4.608;2023-02-08T11:37:53;11.97;55.82
71297;SHT31;59082;50.658;4.608;2023-02-08T11:40:25;13.47;52.11
71297;SHT31;59082;50.658;4.608;2023-02-08T11:42:52;15.22;48.41
71297;SHT31;59082;50.658;4.608;2023-02-08T11:45:27;16.99;46.50
71297;SHT31;59082;50.658;4.608;2023-02-08T11:47:56;16.90;44.57
71297;SHT31;59082;50.658;4.608;2023-02-08T11:50:36;18.36;43.57
71297;SHT31;59082;50.658;4.608;2023-02-08T11:56:24;19.70;40.55
71297;SHT31;59082;50.658;4.608;2023-02-08T11:59:03;20.63;40.77
71297;SHT31;59082;50.658;4.608;2023-02-08T12:01:42;21.67;40.12
71297;SHT31;59082;50.658;4.608;2023-02-08T12:04:15;20.83;40.67
71297;SHT31;59082;50.658;4.608;2023-02-08T12:07:06;19.38;41.25
71297;SHT31;59082;50.658;4.608;2023-02-08T12:20:42;13.68;50.96
71297;SHT31;59082;50.658;4.608;2023-02-08T12:23:41;11.97;51.89
71297;SHT31;59082;50.658;4.608;2023-02-08T12:26:19;11.03;54.11
71297;SHT31;59082;50.658;4.608;2023-02-08T12:36:54;10.55;55.19
71297;SHT31;59082;50.658;4.608;2023-02-08T12:43:09;13.26;52.87
71297;SHT31;59082;50.658;4.608;2023-02-08T12:54:40;9.67;57.16
71297;SHT31;59082;50.658;4.608;2023-02-08T12:57:11;8.81;58.65
71297;SHT31;59082;50.658;4.608;2023-02-08T12:59:46;9.55;58.83
71297;SHT31;59082;50.658;4.608;2023-02-08T13:04:54;13.64;52.43
71297;SHT31;59082;50.658;4.608;2023-02-08T13:07:31;13.81;51.31
71297;SHT31;59082;50.658;4.608;2023-02-08T13:10:11;14.50;50.49
71297;SHT31;59082;50.658;4.608;2023-02-08T13:12:42;15.31;49.36
71297;SHT31;59082;50.658;4.608;2023-02-08T13:15:21;16.42;48.10
71297;SHT31;59082;50.658;4.608;2023-02-08T13:18:19;17.62;47.70
71297;SHT31;59082;50.658;4.608;2023-02-08T13:20:52;20.05;43.95
71297;SHT31;59082;50.658;4.608;2023-02-08T13:23:28;15.25;47.69
71297;SHT31;59082;50.658;4.608;2023-02-08T13:25:59;15.67;48.99
71297;SHT31;59082;50.658;4.608;2023-02-08T13:28:26;12.38;50.71
71297;SHT31;59082;50.658;4.608;2023-02-08T13:31:07;10.65;55.36
71297;SHT31;59082;50.658;4.608;2023-02-08T13:33:45;9.17;57.53
71297;SHT31;59082;50.658;4.608;2023-02-08T13:36:34;9.97;57.72
71297;SHT31;59082;50.658;4.608;2023-02-08T13:39:03;11.21;55.60
71297;SHT31;59082;50.658;4.608;2023-02-08T13:41:31;9.36;57.53
71297;SHT31;59082;50.658;4.608;2023-02-08T13:44:06;8.90;59.27
71297;SHT31;59082;50.658;4.608;2023-02-08T13:46:43;9.65;60.51
71297;SHT31;59082;50.658;4.608;2023-02-08T13:52:04;12.37;55.99
71297;SHT31;59082;50.658;4.608;2023-02-08T13:54:30;14.88;52.27
71297;SHT31;59082;50.658;4.608;2023-02-08T13:56:56;16.45;50.27
71297;SHT31;59082;50.658;4.608;2023-02-08T13:59:33;12.78;52.09
71297;SHT31;59082;50.658;4.608;2023-02-08T14:04:46;12.78;53.55
71297;SHT31;59082;50.658;4.608;2023-02-08T14:12:29;11.26;55.87
71297;SHT31;59082;50.658;4.608;2023-02-08T14:17:31;10.13;58.05
71297;SHT31;59082;50.658;4.608;2023-02-08T14:20:04;10.07;58.27
71297;SHT31;59082;50.658;4.608;2023-02-08T14:22:37;9.62;59.90
71297;SHT31;59082;50.658;4.608;2023-02-08T14:25:16;8.57;61.52
71297;SHT31;59082;50.658;4.608;2023-02-08T14:30:32;10.17;59.19
71297;SHT31;59082;50.658;4.608;2023-02-08T14:35:38;14.47;53.63
71297;SHT31;59082;50.658;4.608;2023-02-08T14:41:00;10.11;57.04
71297;SHT31;59082;50.658;4.608;2023-02-08T14:43:37;9.49;59.56
71297;SHT31;59082;50.658;4.608;2023-02-08T14:49:14;7.57;63.96
71297;SHT31;59082;50.658;4.608;2023-02-08T14:51:48;7.70;63.70
71297;SHT31;59082;50.658;4.608;2023-02-08T14:54:26;7.23;64.40
71297;SHT31;59082;50.658;4.608;2023-02-08T14:57:00;6.92;65.44
71297;SHT31;59082;50.658;4.608;2023-02-08T14:59:31;6.78;65.72
71297;SHT31;59082;50.658;4.608;2023-02-08T15:02:02;7.07;66.21
71297;SHT31;59082;50.658;4.608;2023-02-08T15:04:41;7.26;65.99
71297;SHT31;59082;50.658;4.608;2023-02-08T15:10:04;6.67;65.82
71297;SHT31;59082;50.658;4.608;2023-02-08T15:12:37;6.77;65.43
71297;SHT31;59082;50.658;4.608;2023-02-08T15:15:04;6.61;65.97
71297;SHT31;59082;50.658;4.608;2023-02-08T15:17:39;6.56;66.61
71297;SHT31;59082;50.658;4.608;2023-02-08T15:20:15;6.84;66.36
71297;SHT31;59082;50.658;4.608;2023-02-08T15:22:41;6.83;66.22
71297;SHT31;59082;50.658;4.608;2023-02-08T15:25:25;6.42;65.39
71297;SHT31;59082;50.658;4.608;2023-02-08T15:27:55;6.23;65.00
71297;SHT31;59082;50.658;4.608;2023-02-08T15:30:22;6.04;66.18
71297;SHT31;59082;50.658;4.608;2023-02-08T15:32:48;5.95;67.32
71297;SHT31;59082;50.658;4.608;2023-02-08T15:35:17;5.83;67.34
71297;SHT31;59082;50.658;4.608;2023-02-08T15:37:45;5.90;67.42
71297;SHT31;59082;50.658;4.608;2023-02-08T15:40:28;5.81;67.87
71297;SHT31;59082;50.658;4.608;2023-02-08T15:43:02;5.83;66.68
71297;SHT31;59082;50.658;4.608;2023-02-08T15:45:28;5.73;66.27
71297;SHT31;59082;50.658;4.608;2023-02-08T15:47:57;5.53;66.59
71297;SHT31;59082;50.658;4.608;2023-02-08T15:50:24;5.46;66.76
71297;SHT31;59082;50.658;4.608;2023-02-08T15:53:19;5.51;66.37
71297;SHT31;59082;50.658;4.608;2023-02-08T15:56:01;5.32;67.28
71297;SHT31;59082;50.658;4.608;2023-02-08T15:58:37;5.19;67.50
71297;SHT31;59082;50.658;4.608;2023-02-08T16:01:05;5.09;68.08
71297;SHT31;59082;50.658;4.608;2023-02-08T16:03:33;4.95;69.07
71297;SHT31;59082;50.658;4.608;2023-02-08T16:06:01;4.87;69.58
71297;SHT31;59082;50.658;4.608;2023-02-08T16:08:35;4.79;69.36
71297;SHT31;59082;50.658;4.608;2023-02-08T16:11:10;4.65;69.45
71297;SHT31;59082;50.658;4.608;2023-02-08T16:13:39;4.57;69.92
71297;SHT31;59082;50.658;4.608;2023-02-08T16:16:20;4.50;70.48
71297;SHT31;59082;50.658;4.608;2023-02-08T16:21:30;4.24;71.80
71297;SHT31;59082;50.658;4.608;2023-02-08T16:24:06;4.13;72.07
71297;SHT31;59082;50.658;4.608;2023-02-08T16:26:44;4.09;72.34
71297;SHT31;59082;50.658;4.608;2023-02-08T16:29:25;3.98;72.57
71297;SHT31;59082;50.658;4.608;2023-02-08T16:34:30;3.82;72.85
71297;SHT31;59082;50.658;4.608;2023-02-08T16:36:58;3.72;73.14
71297;SHT31;59082;50.658;4.608;2023-02-08T16:42:45;3.50;73.73
71297;SHT31;59082;50.658;4.608;2023-02-08T16:45:14;3.40;74.29
71297;SHT31;59082;50.658;4.608;2023-02-08T16:47:49;3.40;74.68
71297;SHT31;59082;50.658;4.608;2023-02-08T16:50:26;3.27;74.75
71297;SHT31;59082;50.658;4.608;2023-02-08T16:53:02;3.16;74.69
71297;SHT31;59082;50.658;4.608;2023-02-08T16:55:30;3.03;74.95
71297;SHT31;59082;50.658;4.608;2023-02-08T16:57:57;3.00;74.46
71297;SHT31;59082;50.658;4.608;2023-02-08T17:00:32;2.98;74.40
71297;SHT31;59082;50.658;4.608;2023-02-08T17:02:58;2.89;74.73
71297;SHT31;59082;50.658;4.608;2023-02-08T17:05:27;2.92;74.76
71297;SHT31;59082;50.658;4.608;2023-02-08T17:07:54;2.85;74.47
71297;SHT31;59082;50.658;4.608;2023-02-08T17:10:23;2.78;74.84
71297;SHT31;59082;50.658;4.608;2023-02-08T17:12:57;2.71;74.47
71297;SHT31;59082;50.658;4.608;2023-02-08T17:15:24;2.62;74.68
71297;SHT31;59082;50.658;4.608;2023-02-08T17:17:51;2.71;74.42
71297;SHT31;59082;50.658;4.608;2023-02-08T17:20:26;2.68;74.55
71297;SHT31;59082;50.658;4.608;2023-02-08T17:22:53;2.68;74.84
71297;SHT31;59082;50.658;4.608;2023-02-08T17:25:21;2.65;74.66
71297;SHT31;59082;50.658;4.608;2023-02-08T17:27:54;2.64;74.61
71297;SHT31;59082;50.658;4.608;2023-02-08T17:30:30;2.62;75.07
71297;SHT31;59082;50.658;4.608;2023-02-08T17:32:55;2.41;75.64
71297;SHT31;59082;50.658;4.608;2023-02-08T17:35:25;2.29;76.50
71297;SHT31;59082;50.658;4.608;2023-02-08T17:37:53;2.20;77.11
71297;SHT31;59082;50.658;4.608;2023-02-08T17:40:23;2.12;77.74
71297;SHT31;59082;50.658;4.608;2023-02-08T17:42:51;2.10;77.02
71297;SHT31;59082;50.658;4.608;2023-02-08T17:45:17;2.02;77.52
71297;SHT31;59082;50.658;4.608;2023-02-08T17:47:43;2.05;77.10
71297;SHT31;59082;50.658;4.608;2023-02-08T17:50:11;2.05;76.73
71297;SHT31;59082;50.658;4.608;2023-02-08T17:52:38;2.03;76.90
71297;SHT31;59082;50.658;4.608;2023-02-08T17:55:09;2.06;77.07
71297;SHT31;59082;50.658;4.608;2023-02-08T17:57:38;2.02;77.37
71297;SHT31;59082;50.658;4.608;2023-02-08T18:00:09;2.03;77.63
71297;SHT31;59082;50.658;4.608;2023-02-08T18:02:37;1.99;77.55
71297;SHT31;59082;50.658;4.608;2023-02-08T18:05:04;1.92;77.68
71297;SHT31;59082;50.658;4.608;2023-02-08T18:07:29;1.87;77.69
71297;SHT31;59082;50.658;4.608;2023-02-08T18:09:55;1.92;77.63
71297;SHT31;59082;50.658;4.608;2023-02-08T18:12:20;1.95;77.72
71297;SHT31;59082;50.658;4.608;2023-02-08T18:14:49;1.93;77.47
71297;SHT31;59082;50.658;4.608;2023-02-08T18:17:14;1.96;77.70
71297;SHT31;59082;50.658;4.608;2023-02-08T18:19:40;1.99;78.25
71297;SHT31;59082;50.658;4.608;2023-02-08T18:22:06;2.03;77.66
71297;SHT31;59082;50.658;4.608;2023-02-08T18:24:33;2.06;77.48
71297;SHT31;59082;50.658;4.608;2023-02-08T18:26:58;1.95;78.18
71297;SHT31;59082;50.658;4.608;2023-02-08T18:29:24;1.92;78.30
71297;SHT31;59082;50.658;4.608;2023-02-08T18:31:50;1.78;78.49
71297;SHT31;59082;50.658;4.608;2023-02-08T18:34:16;1.79;77.98
71297;SHT31;59082;50.658;4.608;2023-02-08T18:36:43;1.73;78.67
71297;SHT31;59082;50.658;4.608;2023-02-08T18:39:11;1.79;78.15
71297;SHT31;59082;50.658;4.608;2023-02-08T18:41:39;1.71;78.44
71297;SHT31;59082;50.658;4.608;2023-02-08T18:44:06;1.75;77.93
71297;SHT31;59082;50.658;4.608;2023-02-08T18:46:32;1.69;77.97
71297;SHT31;59082;50.658;4.608;2023-02-08T18:49:03;1.61;78.14
71297;SHT31;59082;50.658;4.608;2023-02-08T18:51:31;1.52;78.62
71297;SHT31;59082;50.658;4.608;2023-02-08T18:53:57;1.41;78.20
71297;SHT31;59082;50.658;4.608;2023-02-08T18:56:25;1.43;78.84
71297;SHT31;59082;50.658;4.608;2023-02-08T18:58:57;1.24;80.08
71297;SHT31;59082;50.658;4.608;2023-02-08T19:01:24;1.22;79.57
71297;SHT31;59082;50.658;4.608;2023-02-08T19:03:49;1.33;79.10
71297;SHT31;59082;50.658;4.608;2023-02-08T19:06:21;1.37;78.96
71297;SHT31;59082;50.658;4.608;2023-02-08T19:08:53;1.34;78.54
71297;SHT31;59082;50.658;4.608;2023-02-08T19:11:24;1.45;78.43
71297;SHT31;59082;50.658;4.608;2023-02-08T19:13:57;1.28;78.63
71297;SHT31;59082;50.658;4.608;2023-02-08T19:16:46;1.27;78.92
71297;SHT31;59082;50.658;4.608;2023-02-08T19:19:12;1.24;79.02
71297;SHT31;59082;50.658;4.608;2023-02-08T19:21:38;1.14;79.18
71297;SHT31;59082;50.658;4.608;2023-02-08T19:24:04;1.13;78.95
71297;SHT31;59082;50.658;4.608;2023-02-08T19:26:32;0.99;79.37
71297;SHT31;59082;50.658;4.608;2023-02-08T19:29:02;0.95;78.83
71297;SHT31;59082;50.658;4.608;2023-02-08T19:31:29;0.97;78.79
71297;SHT31;59082;50.658;4.608;2023-02-08T19:33:57;0.83;79.60
71297;SHT31;59082;50.658;4.608;2023-02-08T19:36:30;0.72;80.95
71297;SHT31;59082;50.658;4.608;2023-02-08T19:38:56;0.64;81.16
71297;SHT31;59082;50.658;4.608;2023-02-08T19:41:27;0.55;81.70
71297;SHT31;59082;50.658;4.608;2023-02-08T19:43:53;0.45;81.03
71297;SHT31;59082;50.658;4.608;2023-02-08T19:46:20;0.38;80.99
71297;SHT31;59082;50.658;4.608;2023-02-08T19:48:50;0.28;82.31
71297;SHT31;59082;50.658;4.608;2023-02-08T19:51:17;0.15;83.45
71297;SHT31;59082;50.658;4.608;2023-02-08T19:53:43;0.03;83.64
71297;SHT31;59082;50.658;4.608;2023-02-08T19:56:11;-0.08;83.52
71297;SHT31;59082;50.658;4.608;2023-02-08T19:58:38;-0.17;84.02
71297;SHT31;59082;50.658;4.608;2023-02-08T20:01:12;-0.25;84.62
71297;SHT31;59082;50.658;4.608;2023-02-08T20:03:38;-0.34;84.44
71297;SHT31;59082;50.658;4.608;2023-02-08T20:06:04;-0.37;84.04
71297;SHT31;59082;50.658;4.608;2023-02-08T20:08:30;-0.45;84.04
71297;SHT31;59082;50.658;4.608;2023-02-08T20:10:56;-0.49;83.62
71297;SHT31;59082;50.658;4.608;2023-02-08T20:13:22;-0.56;84.45
71297;SHT31;59082;50.658;4.608;2023-02-08T20:15:48;-0.64;84.46
71297;SHT31;59082;50.658;4.608;2023-02-08T20:18:14;-0.68;85.29
71297;SHT31;59082;50.658;4.608;2023-02-08T20:20:41;-0.75;84.64
71297;SHT31;59082;50.658;4.608;2023-02-08T20:23:09;-0.79;84.43
71297;SHT31;59082;50.658;4.608;2023-02-08T20:25:37;-0.85;84.57
71297;SHT31;59082;50.658;4.608;2023-02-08T20:28:03;-0.86;86.32
71297;SHT31;59082;50.658;4.608;2023-02-08T20:30:28;-0.93;86.00
71297;SHT31;59082;50.658;4.608;2023-02-08T20:32:55;-0.99;85.70
71297;SHT31;59082;50.658;4.608;2023-02-08T20:35:20;-0.94;85.07
71297;SHT31;59082;50.658;4.608;2023-02-08T20:37:46;-1.00;85.51
71297;SHT31;59082;50.658;4.608;2023-02-08T20:40:13;-1.03;85.74
71297;SHT31;59082;50.658;4.608;2023-02-08T20:42:40;-1.03;85.58
71297;SHT31;59082;50.658;4.608;2023-02-08T20:45:06;-1.04;85.38
71297;SHT31;59082;50.658;4.608;2023-02-08T20:47:36;-1.10;85.56
71297;SHT31;59082;50.658;4.608;2023-02-08T20:50:02;-1.10;85.38
71297;SHT31;59082;50.658;4.608;2023-02-08T20:52:30;-1.10;85.70
71297;SHT31;59082;50.658;4.608;2023-02-08T20:54:56;-1.07;86.33
71297;SHT31;59082;50.658;4.608;2023-02-08T20:57:21;-1.14;86.41
71297;SHT31;59082;50.658;4.608;2023-02-08T20:59:51;-1.23;86.74
71297;SHT31;59082;50.658;4.608;2023-02-08T21:02:19;-1.27;87.23
71297;SHT31;59082;50.658;4.608;2023-02-08T21:04:45;-1.32;87.24
71297;SHT31;59082;50.658;4.608;2023-02-08T21:07:11;-1.38;87.93
71297;SHT31;59082;50.658;4.608;2023-02-08T21:09:37;-1.42;87.91
71297;SHT31;59082;50.658;4.608;2023-02-08T21:12:03;-1.45;88.34
71297;SHT31;59082;50.658;4.608;2023-02-08T21:14:28;-1.45;88.52
71297;SHT31;59082;50.658;4.608;2023-02-08T21:16:56;-1.44;88.46
71297;SHT31;59082;50.658;4.608;2023-02-08T21:19:28;-1.45;89.23
71297;SHT31;59082;50.658;4.608;2023-02-08T21:21:59;-1.52;89.23
71297;SHT31;59082;50.658;4.608;2023-02-08T21:24:26;-1.59;89.57
71297;SHT31;59082;50.658;4.608;2023-02-08T21:26:53;-1.63;89.79
71297;SHT31;59082;50.658;4.608;2023-02-08T21:29:19;-1.65;90.03
71297;SHT31;59082;50.658;4.608;2023-02-08T21:31:45;-1.69;89.85
